Time,TemperatureF,DewpointF,PressureIn,WindDirection,WindDirectionDegrees,WindSpeedMPH,WindSpeedGustMPH,Humidity,HourlyPrecipIn,Conditions,Clouds,dailyrainin,SoftwareType,DateUTC
2013-01-18 00:02:00,54.0,13.0,-100.00,East,79,21.0,33.0,19,-99.99,,,-99.99,,2013-01-18 08:02:00,
2013-01-18 00:11:00,54.0,13.0,-100.00,ENE,76,20.0,34.0,19,-99.99,,,-99.99,,2013-01-18 08:11:00,
2013-01-18 00:22:00,54.0,13.0,-100.00,ENE,75,20.0,32.0,19,-99.99,,,-99.99,,2013-01-18 08:22:00,
2013-01-18 00:32:00,54.0,13.0,-100.00,ENE,73,17.0,29.0,19,-99.99,,,-99.99,,2013-01-18 08:32:00,
2013-01-18 00:42:00,54.0,14.0,-100.00,ENE,73,16.0,30.0,20,-99.99,,,-99.99,,2013-01-18 08:42:00,
2013-01-18 00:52:00,54.0,14.0,-100.00,ENE,71,13.0,26.0,20,-99.99,,,-99.99,,2013-01-18 08:52:00,
2013-01-18 01:02:00,54.0,14.0,-100.00,ENE,70,13.0,29.0,20,-99.99,,,-99.99,,2013-01-18 09:02:00,
2013-01-18 01:12:00,54.0,14.0,-100.00,ENE,71,13.0,22.0,20,-99.99,,,-99.99,,2013-01-18 09:12:00,
2013-01-18 01:22:00,54.0,14.0,-100.00,ENE,69,12.0,21.0,20,-99.99,,,-99.99,,2013-01-18 09:22:00,
2013-01-18 01:32:00,54.0,14.0,-100.00,ENE,68,11.0,21.0,20,-99.99,,,-99.99,,2013-01-18 09:32:00,
2013-01-18 01:42:00,54.0,14.0,-100.00,ENE,67,11.0,22.0,20,-99.99,,,-99.99,,2013-01-18 09:42:00,
2013-01-18 01:52:00,54.0,14.0,-100.00,East,85,8.0,18.0,20,-99.99,,,-99.99,,2013-01-18 09:52:00,
2013-01-18 02:02:00,54.0,14.0,-100.00,ENE,69,8.0,19.0,20,-99.99,,,-99.99,,2013-01-18 10:02:00,
2013-01-18 02:12:00,54.0,14.0,-100.00,ESE,103,6.0,17.0,20,-99.99,,,-99.99,,2013-01-18 10:12:00,
2013-01-18 02:22:00,54.0,14.0,-100.00,East,97,8.0,20.0,20,-99.99,,,-99.99,,2013-01-18 10:22:00,
2013-01-18 02:32:00,54.0,14.0,-100.00,ESE,112,7.0,19.0,20,-99.99,,,-99.99,,2013-01-18 10:32:00,
2013-01-18 02:42:00,54.0,14.0,-100.00,ENE,74,10.0,21.0,20,-99.99,,,-99.99,,2013-01-18 10:42:00,
2013-01-18 02:52:00,54.0,14.0,-100.00,ENE,71,11.0,21.0,20,-99.99,,,-99.99,,2013-01-18 10:52:00,
2013-01-18 03:02:00,54.0,14.0,-100.00,ENE,70,11.0,22.0,20,-99.99,,,-99.99,,2013-01-18 11:02:00,
2013-01-18 03:12:00,53.0,14.0,-100.00,ENE,67,10.0,19.0,21,-99.99,,,-99.99,,2013-01-18 11:12:00,
2013-01-18 03:22:00,53.0,14.0,-100.00,ENE,69,9.0,19.0,21,-99.99,,,-99.99,,2013-01-18 11:22:00,
2013-01-18 03:32:00,53.0,14.0,-100.00,NE,44,6.0,14.0,21,-99.99,,,-99.99,,2013-01-18 11:32:00,
2013-01-18 03:42:00,53.0,14.0,-100.00,ENE,66,10.0,22.0,21,-99.99,,,-99.99,,2013-01-18 11:42:00,
2013-01-18 03:52:00,53.0,14.0,-100.00,ENE,72,11.0,23.0,21,-99.99,,,-99.99,,2013-01-18 11:52:00,
2013-01-18 04:02:00,53.0,14.0,-100.00,ENE,69,14.0,25.0,21,-99.99,,,-99.99,,2013-01-18 12:02:00,
2013-01-18 04:12:00,53.0,14.0,-100.00,ENE,71,14.0,24.0,21,-99.99,,,-99.99,,2013-01-18 12:12:00,
2013-01-18 04:22:00,53.0,14.0,-100.00,ENE,67,11.0,23.0,21,-99.99,,,-99.99,,2013-01-18 12:22:00,
2013-01-18 04:32:00,53.0,15.0,-100.00,ENE,72,12.0,25.0,22,-99.99,,,-99.99,,2013-01-18 12:32:00,
2013-01-18 04:42:00,53.0,14.0,-100.00,ENE,68,14.0,26.0,21,-99.99,,,-99.99,,2013-01-18 12:42:00,
2013-01-18 04:52:00,53.0,14.0,-100.00,ENE,71,14.0,26.0,21,-99.99,,,-99.99,,2013-01-18 12:52:00,
2013-01-18 05:02:00,53.0,14.0,-100.00,ENE,71,17.0,30.0,21,-99.99,,,-99.99,,2013-01-18 13:02:00,
2013-01-18 05:12:00,53.0,14.0,-100.00,ENE,74,18.0,27.0,21,-99.99,,,-99.99,,2013-01-18 13:12:00,
2013-01-18 05:22:00,53.0,14.0,-100.00,ENE,76,18.0,27.0,21,-99.99,,,-99.99,,2013-01-18 13:22:00,
2013-01-18 05:33:00,53.0,15.0,-100.00,ENE,73,15.0,24.0,22,-99.99,,,-99.99,,2013-01-18 13:33:00,
2013-01-18 05:42:00,53.0,15.0,-100.00,ENE,73,15.0,24.0,22,-99.99,,,-99.99,,2013-01-18 13:42:00,
2013-01-18 05:52:00,53.0,15.0,-100.00,ENE,73,16.0,27.0,22,-99.99,,,-99.99,,2013-01-18 13:52:00,
2013-01-18 06:03:00,53.0,15.0,-100.00,ENE,73,16.0,27.0,22,-99.99,,,-99.99,,2013-01-18 14:03:00,
2013-01-18 06:12:00,53.0,15.0,-100.00,ENE,78,16.0,27.0,22,-99.99,,,-99.99,,2013-01-18 14:12:00,
2013-01-18 06:22:00,53.0,15.0,-100.00,East,82,19.0,33.0,22,-99.99,,,-99.99,,2013-01-18 14:22:00,
2013-01-18 06:33:00,53.0,15.0,-100.00,East,84,21.0,31.0,22,-99.99,,,-99.99,,2013-01-18 14:33:00,
2013-01-18 06:42:00,53.0,15.0,-100.00,East,80,22.0,32.0,22,-99.99,,,-99.99,,2013-01-18 14:42:00,
2013-01-18 06:53:00,53.0,15.0,-100.00,East,86,23.0,34.0,22,-99.99,,,-99.99,,2013-01-18 14:53:00,
2013-01-18 07:02:00,53.0,15.0,-100.00,East,83,25.0,34.0,22,-99.99,,,-99.99,,2013-01-18 15:02:00,
2013-01-18 07:12:00,53.0,15.0,-100.00,East,85,24.0,34.0,22,-99.99,,,-99.99,,2013-01-18 15:12:00,
2013-01-18 07:22:00,53.0,15.0,-100.00,East,83,24.0,37.0,22,-99.99,,,-99.99,,2013-01-18 15:22:00,
2013-01-18 07:33:00,53.0,15.0,-100.00,East,85,23.0,34.0,22,-99.99,,,-99.99,,2013-01-18 15:33:00,
2013-01-18 07:42:00,53.0,15.0,-100.00,East,85,23.0,34.0,22,-99.99,,,-99.99,,2013-01-18 15:42:00,
2013-01-18 07:52:00,54.0,15.0,-100.00,East,86,24.0,36.0,21,-99.99,,,-99.99,,2013-01-18 15:52:00,
2013-01-18 08:02:00,54.0,15.0,-100.00,East,86,24.0,36.0,21,-99.99,,,-99.99,,2013-01-18 16:02:00,
2013-01-18 08:12:00,55.0,16.0,-100.00,East,86,24.0,36.0,21,-99.99,,,-99.99,,2013-01-18 16:12:00,
2013-01-18 08:22:00,55.0,15.0,-100.00,East,85,25.0,37.0,20,-99.99,,,-99.99,,2013-01-18 16:22:00,
2013-01-18 08:32:00,55.0,15.0,-100.00,East,86,26.0,39.0,20,-99.99,,,-99.99,,2013-01-18 16:32:00,
2013-01-18 08:42:00,55.0,15.0,-100.00,East,86,26.0,39.0,20,-99.99,,,-99.99,,2013-01-18 16:42:00,
2013-01-18 08:52:00,56.0,16.0,-100.00,East,85,26.0,36.0,20,-99.99,,,-99.99,,2013-01-18 16:52:00,
2013-01-18 09:02:00,56.0,16.0,-100.00,East,86,27.0,40.0,20,-99.99,,,-99.99,,2013-01-18 17:02:00,
2013-01-18 09:12:00,57.0,15.0,-100.00,East,86,28.0,39.0,19,-99.99,,,-99.99,,2013-01-18 17:12:00,
2013-01-18 09:22:00,57.0,15.0,-100.00,East,84,28.0,41.0,19,-99.99,,,-99.99,,2013-01-18 17:22:00,
2013-01-18 09:33:00,57.0,15.0,-100.00,East,84,27.0,38.0,19,-99.99,,,-99.99,,2013-01-18 17:33:00,
2013-01-18 09:42:00,58.0,16.0,-100.00,East,84,24.0,41.0,19,-99.99,,,-99.99,,2013-01-18 17:42:00,
2013-01-18 09:53:00,58.0,16.0,-100.00,East,82,23.0,35.0,19,-99.99,,,-99.99,,2013-01-18 17:53:00,
2013-01-18 10:03:00,58.0,16.0,-100.00,East,82,23.0,35.0,19,-99.99,,,-99.99,,2013-01-18 18:03:00,
2013-01-18 10:12:00,59.0,17.0,-100.00,East,86,24.0,34.0,19,-99.99,,,-99.99,,2013-01-18 18:12:00,
2013-01-18 10:23:00,59.0,16.0,-100.00,East,84,26.0,37.0,18,-99.99,,,-99.99,,2013-01-18 18:23:00,
2013-01-18 10:33:00,59.0,16.0,-100.00,East,85,24.0,37.0,18,-99.99,,,-99.99,,2013-01-18 18:33:00,
2013-01-18 10:43:00,60.0,16.0,-100.00,East,82,23.0,37.0,18,-99.99,,,-99.99,,2013-01-18 18:43:00,
2013-01-18 10:52:00,60.0,16.0,-100.00,East,81,21.0,35.0,18,-99.99,,,-99.99,,2013-01-18 18:52:00,
2013-01-18 11:02:00,60.0,16.0,-100.00,East,80,19.0,30.0,18,-99.99,,,-99.99,,2013-01-18 19:02:00,
2013-01-18 11:12:00,61.0,17.0,-100.00,ENE,78,19.0,34.0,18,-99.99,,,-99.99,,2013-01-18 19:12:00,
2013-01-18 11:22:00,61.0,17.0,-100.00,ENE,77,16.0,30.0,18,-99.99,,,-99.99,,2013-01-18 19:22:00,
2013-01-18 11:32:00,62.0,17.0,-100.00,ENE,68,14.0,31.0,17,-99.99,,,-99.99,,2013-01-18 19:32:00,
2013-01-18 11:42:00,62.0,17.0,-100.00,ENE,71,13.0,25.0,17,-99.99,,,-99.99,,2013-01-18 19:42:00,
2013-01-18 11:52:00,62.0,17.0,-100.00,ENE,69,13.0,23.0,17,-99.99,,,-99.99,,2013-01-18 19:52:00,
2013-01-18 12:02:00,62.0,17.0,-100.00,ENE,74,15.0,27.0,17,-99.99,,,-99.99,,2013-01-18 20:02:00,
2013-01-18 12:12:00,62.0,17.0,-100.00,ENE,74,16.0,29.0,17,-99.99,,,-99.99,,2013-01-18 20:12:00,
2013-01-18 12:22:00,63.0,18.0,-100.00,ENE,72,14.0,27.0,17,-99.99,,,-99.99,,2013-01-18 20:22:00,
2013-01-18 12:33:00,63.0,18.0,-100.00,ENE,65,13.0,26.0,17,-99.99,,,-99.99,,2013-01-18 20:33:00,
2013-01-18 12:42:00,63.0,18.0,-100.00,ENE,63,12.0,22.0,17,-99.99,,,-99.99,,2013-01-18 20:42:00,
2013-01-18 12:52:00,64.0,18.0,-100.00,ENE,76,13.0,24.0,17,-99.99,,,-99.99,,2013-01-18 20:52:00,
2013-01-18 13:02:00,63.0,18.0,-100.00,ENE,76,13.0,24.0,17,-99.99,,,-99.99,,2013-01-18 21:02:00,
2013-01-18 13:12:00,63.0,18.0,-100.00,East,80,17.0,28.0,17,-99.99,,,-99.99,,2013-01-18 21:12:00,
2013-01-18 13:22:00,63.0,18.0,-100.00,East,82,17.0,27.0,17,-99.99,,,-99.99,,2013-01-18 21:22:00,
2013-01-18 13:33:00,63.0,18.0,-100.00,East,83,17.0,26.0,17,-99.99,,,-99.99,,2013-01-18 21:33:00,
2013-01-18 13:42:00,63.0,18.0,-100.00,East,85,18.0,29.0,17,-99.99,,,-99.99,,2013-01-18 21:42:00,
2013-01-18 13:52:00,64.0,18.0,-100.00,East,85,16.0,27.0,17,-99.99,,,-99.99,,2013-01-18 21:52:00,
2013-01-18 14:02:00,63.0,18.0,-100.00,East,83,16.0,27.0,17,-99.99,,,-99.99,,2013-01-18 22:02:00,
2013-01-18 14:12:00,63.0,18.0,-100.00,East,84,17.0,27.0,17,-99.99,,,-99.99,,2013-01-18 22:12:00,
2013-01-18 14:22:00,63.0,18.0,-100.00,East,83,15.0,24.0,17,-99.99,,,-99.99,,2013-01-18 22:22:00,
2013-01-18 14:32:00,63.0,18.0,-100.00,East,80,15.0,22.0,17,-99.99,,,-99.99,,2013-01-18 22:32:00,
2013-01-18 14:42:00,63.0,18.0,-100.00,East,82,18.0,27.0,17,-99.99,,,-99.99,,2013-01-18 22:42:00,
2013-01-18 14:52:00,62.0,17.0,-100.00,East,80,18.0,26.0,17,-99.99,,,-99.99,,2013-01-18 22:52:00,
2013-01-18 15:02:00,62.0,17.0,-100.00,East,80,18.0,26.0,17,-99.99,,,-99.99,,2013-01-18 23:02:00,
2013-01-18 15:12:00,62.0,17.0,-100.00,ENE,78,17.0,27.0,17,-99.99,,,-99.99,,2013-01-18 23:12:00,
2013-01-18 15:22:00,62.0,17.0,-100.00,East,84,17.0,25.0,17,-99.99,,,-99.99,,2013-01-18 23:22:00,
2013-01-18 15:32:00,62.0,17.0,-100.00,East,84,18.0,24.0,17,-99.99,,,-99.99,,2013-01-18 23:32:00,
2013-01-18 15:42:00,62.0,17.0,-100.00,East,84,18.0,24.0,17,-99.99,,,-99.99,,2013-01-18 23:42:00,
2013-01-18 15:52:00,61.0,16.0,-100.00,East,85,17.0,23.0,17,-99.99,,,-99.99,,2013-01-18 23:52:00,
2013-01-18 16:02:00,61.0,16.0,-100.00,East,83,17.0,23.0,17,-99.99,,,-99.99,,2013-01-19 00:02:00,
2013-01-18 16:12:00,61.0,17.0,-100.00,East,83,17.0,23.0,18,-99.99,,,-99.99,,2013-01-19 00:12:00,
2013-01-18 16:22:00,60.0,16.0,-100.00,East,82,17.0,24.0,18,-99.99,,,-99.99,,2013-01-19 00:22:00,
2013-01-18 16:32:00,60.0,16.0,-100.00,East,83,18.0,29.0,18,-99.99,,,-99.99,,2013-01-19 00:32:00,
2013-01-18 16:42:00,59.0,16.0,-100.00,East,81,18.0,25.0,18,-99.99,,,-99.99,,2013-01-19 00:42:00,
2013-01-18 16:52:00,59.0,16.0,-100.00,East,80,17.0,25.0,18,-99.99,,,-99.99,,2013-01-19 00:52:00,
2013-01-18 17:02:00,58.0,16.0,-100.00,East,81,17.0,25.0,19,-99.99,,,-99.99,,2013-01-19 01:02:00,
2013-01-18 17:12:00,58.0,16.0,-100.00,East,79,16.0,22.0,19,-99.99,,,-99.99,,2013-01-19 01:12:00,
2013-01-18 17:22:00,57.0,15.0,-100.00,ENE,75,14.0,22.0,19,-99.99,,,-99.99,,2013-01-19 01:22:00,
2013-01-18 17:32:00,57.0,15.0,-100.00,ENE,76,15.0,23.0,19,-99.99,,,-99.99,,2013-01-19 01:32:00,
2013-01-18 17:42:00,56.0,16.0,-100.00,ENE,72,14.0,23.0,20,-99.99,,,-99.99,,2013-01-19 01:42:00,
2013-01-18 17:52:00,55.0,15.0,-100.00,ENE,71,14.0,25.0,20,-99.99,,,-99.99,,2013-01-19 01:52:00,
2013-01-18 18:02:00,55.0,15.0,-100.00,ENE,73,14.0,21.0,20,-99.99,,,-99.99,,2013-01-19 02:02:00,
2013-01-18 18:12:00,55.0,15.0,-100.00,ENE,73,14.0,25.0,20,-99.99,,,-99.99,,2013-01-19 02:12:00,
2013-01-18 18:22:00,55.0,15.0,-100.00,ENE,76,16.0,24.0,20,-99.99,,,-99.99,,2013-01-19 02:22:00,
2013-01-18 18:32:00,55.0,15.0,-100.00,ENE,74,16.0,24.0,20,-99.99,,,-99.99,,2013-01-19 02:32:00,
2013-01-18 18:42:00,55.0,15.0,-100.00,ENE,77,14.0,22.0,20,-99.99,,,-99.99,,2013-01-19 02:42:00,
2013-01-18 18:52:00,55.0,15.0,-100.00,East,79,16.0,23.0,20,-99.99,,,-99.99,,2013-01-19 02:52:00,
2013-01-18 19:02:00,55.0,15.0,-100.00,ENE,78,14.0,23.0,20,-99.99,,,-99.99,,2013-01-19 03:02:00,
2013-01-18 19:12:00,55.0,15.0,-100.00,ENE,76,12.0,17.0,20,-99.99,,,-99.99,,2013-01-19 03:12:00,
2013-01-18 19:22:00,54.0,15.0,-100.00,ENE,74,12.0,19.0,21,-99.99,,,-99.99,,2013-01-19 03:22:00,
2013-01-18 19:32:00,54.0,15.0,-100.00,East,80,12.0,20.0,21,-99.99,,,-99.99,,2013-01-19 03:32:00,
2013-01-18 19:42:00,55.0,15.0,-100.00,East,79,16.0,25.0,20,-99.99,,,-99.99,,2013-01-19 03:42:00,
2013-01-18 19:52:00,55.0,15.0,-100.00,East,81,16.0,26.0,20,-99.99,,,-99.99,,2013-01-19 03:52:00,
2013-01-18 20:02:00,55.0,15.0,-100.00,East,79,16.0,23.0,20,-99.99,,,-99.99,,2013-01-19 04:02:00,
2013-01-18 20:12:00,55.0,15.0,-100.00,East,79,16.0,23.0,20,-99.99,,,-99.99,,2013-01-19 04:12:00,
2013-01-18 20:22:00,55.0,15.0,-100.00,East,80,17.0,26.0,20,-99.99,,,-99.99,,2013-01-19 04:22:00,
2013-01-18 20:32:00,55.0,14.0,-100.00,East,79,16.0,22.0,19,-99.99,,,-99.99,,2013-01-19 04:32:00,
2013-01-18 20:42:00,55.0,14.0,-100.00,ENE,78,16.0,25.0,19,-99.99,,,-99.99,,2013-01-19 04:42:00,
2013-01-18 20:52:00,55.0,14.0,-100.00,East,80,16.0,22.0,19,-99.99,,,-99.99,,2013-01-19 04:52:00,
2013-01-18 21:03:00,55.0,14.0,-100.00,East,80,16.0,22.0,19,-99.99,,,-99.99,,2013-01-19 05:03:00,
2013-01-18 21:12:00,55.0,14.0,-100.00,ENE,76,17.0,25.0,19,-99.99,,,-99.99,,2013-01-19 05:12:00,
2013-01-18 21:22:00,55.0,14.0,-100.00,ENE,76,14.0,23.0,19,-99.99,,,-99.99,,2013-01-19 05:22:00,
2013-01-18 21:32:00,55.0,14.0,-100.00,ENE,76,17.0,26.0,19,-99.99,,,-99.99,,2013-01-19 05:32:00,
2013-01-18 21:42:00,55.0,14.0,-100.00,ENE,78,15.0,25.0,19,-99.99,,,-99.99,,2013-01-19 05:42:00,
2013-01-18 21:52:00,55.0,14.0,-100.00,ENE,77,15.0,26.0,19,-99.99,,,-99.99,,2013-01-19 05:52:00,
2013-01-18 22:02:00,54.0,14.0,-100.00,ENE,77,14.0,23.0,20,-99.99,,,-99.99,,2013-01-19 06:02:00,
2013-01-18 22:12:00,54.0,14.0,-100.00,ENE,77,15.0,24.0,20,-99.99,,,-99.99,,2013-01-19 06:12:00,
2013-01-18 22:22:00,54.0,14.0,-100.00,East,80,15.0,23.0,20,-99.99,,,-99.99,,2013-01-19 06:22:00,
2013-01-18 22:32:00,54.0,14.0,-100.00,ENE,74,11.0,19.0,20,-99.99,,,-99.99,,2013-01-19 06:32:00,
2013-01-18 22:42:00,54.0,15.0,-100.00,ENE,75,11.0,21.0,21,-99.99,,,-99.99,,2013-01-19 06:42:00,
2013-01-18 22:52:00,54.0,14.0,-100.00,ENE,75,13.0,20.0,20,-99.99,,,-99.99,,2013-01-19 06:52:00,
2013-01-18 23:02:00,55.0,15.0,-100.00,ENE,78,12.0,20.0,20,-99.99,,,-99.99,,2013-01-19 07:02:00,
2013-01-18 23:12:00,55.0,15.0,-100.00,ENE,78,13.0,20.0,20,-99.99,,,-99.99,,2013-01-19 07:12:00,
2013-01-18 23:22:00,55.0,15.0,-100.00,ENE,76,14.0,21.0,20,-99.99,,,-99.99,,2013-01-19 07:22:00,
2013-01-18 23:32:00,55.0,15.0,-100.00,ENE,75,14.0,24.0,20,-99.99,,,-99.99,,2013-01-19 07:32:00,
2013-01-18 23:42:00,55.0,15.0,-100.00,ENE,75,13.0,23.0,20,-99.99,,,-99.99,,2013-01-19 07:42:00,
2013-01-18 23:52:00,54.0,14.0,-100.00,ENE,75,14.0,22.0,20,-99.99,,,-99.99,,2013-01-19 07:52:00,